createdAt,value
2022-08-16T00:03:46.683Z,12.10
2022-08-16T00:08:50.102Z,12.07
2022-08-16T00:13:56.194Z,12.20
2022-08-16T00:19:01.501Z,13.60
2022-08-16T00:24:06.383Z,11.73
2022-08-16T00:34:43.465Z,12.10
2022-08-16T00:39:47.664Z,12.75
2022-08-16T00:44:57.572Z,13.25
2022-08-16T00:50:02.305Z,14.85
2022-08-16T00:55:08.442Z,12.77
2022-08-16T01:00:13.447Z,12.88
2022-08-16T01:05:25.573Z,13.68
2022-08-16T01:10:33.559Z,13.52
2022-08-16T01:15:43.078Z,13.25
2022-08-16T01:20:54.654Z,14.02
2022-08-16T01:26:33.517Z,14.40
2022-08-16T01:31:31.019Z,12.82
2022-08-16T01:36:36.530Z,18.45
2022-08-16T01:41:44.211Z,15.65
2022-08-16T01:46:50.100Z,13.07
2022-08-16T01:51:58.891Z,13.60
2022-08-16T01:57:13.357Z,14.00
2022-08-16T02:02:26.540Z,15.02
2022-08-16T02:07:33.055Z,14.77
2022-08-16T02:12:43.621Z,18.00
2022-08-16T02:17:54.722Z,14.48
2022-08-16T02:23:00.131Z,13.77
2022-08-16T02:28:06.977Z,15.77
2022-08-16T02:33:15.428Z,13.43
2022-08-16T02:38:19.581Z,18.33
2022-08-16T02:43:27.215Z,14.90
2022-08-16T02:48:33.525Z,16.98
2022-08-16T02:53:40.508Z,15.07
2022-08-16T02:58:53.213Z,16.25
2022-08-16T03:04:40.064Z,14.85
2022-08-16T03:09:23.583Z,15.30
2022-08-16T03:14:32.531Z,17.40
2022-08-16T03:19:59.403Z,17.23
2022-08-16T03:25:04.601Z,18.20
2022-08-16T03:30:18.409Z,20.70
2022-08-16T03:35:32.727Z,17.77
2022-08-16T03:40:53.355Z,25.60
2022-08-16T03:46:01.566Z,25.15
2022-08-16T03:51:13.578Z,25.10
2022-08-16T03:56:23.597Z,20.45
2022-08-16T04:01:30.786Z,21.70
2022-08-16T04:06:36.556Z,20.65
2022-08-16T04:11:41.093Z,21.02
2022-08-16T04:16:45.876Z,23.67
2022-08-16T04:22:08.597Z,19.75
2022-08-16T04:27:20.692Z,17.40
2022-08-16T04:32:25.862Z,23.73
2022-08-16T04:37:30.624Z,16.65
2022-08-16T04:42:46.007Z,23.58
2022-08-16T04:47:55.979Z,18.42
2022-08-16T04:53:02.190Z,21.90
2022-08-16T04:58:44.538Z,18.63
2022-08-16T05:03:41.886Z,20.20
2022-08-16T05:08:59.642Z,18.30
2022-08-16T05:14:07.083Z,20.98
2022-08-16T05:19:16.364Z,17.50
2022-08-16T05:24:39.592Z,15.88
2022-08-16T05:29:59.339Z,14.75
2022-08-16T05:35:10.942Z,15.75
2022-08-16T05:40:19.263Z,17.27
2022-08-16T05:45:25.493Z,14.88
2022-08-16T05:50:34.437Z,16.60
2022-08-16T05:55:41.057Z,15.52
2022-08-16T06:00:45.192Z,16.50
2022-08-16T06:05:53.971Z,16.08
2022-08-16T06:11:05.663Z,12.95
2022-08-16T06:16:18.418Z,11.85
2022-08-16T06:21:27.138Z,12.15
2022-08-16T06:26:44.590Z,12.10
2022-08-16T06:32:04.297Z,10.32
2022-08-16T06:37:09.413Z,10.27
2022-08-16T06:42:14.872Z,11.10
2022-08-16T06:47:53.656Z,11.38
2022-08-16T06:58:34.083Z,9.90
2022-08-16T07:03:55.314Z,9.50
2022-08-16T07:09:09.704Z,9.05
2022-08-16T07:14:24.165Z,9.10
2022-08-16T07:20:04.035Z,9.00
2022-08-16T07:25:01.570Z,11.20
2022-08-16T07:30:26.648Z,12.57
2022-08-16T07:35:32.607Z,16.23
2022-08-16T07:41:00.410Z,15.18
2022-08-16T07:46:02.008Z,13.50
2022-08-16T07:51:09.770Z,15.77
2022-08-16T07:56:18.888Z,11.55
2022-08-16T08:01:24.830Z,14.70
2022-08-16T08:06:34.977Z,15.07
2022-08-16T08:12:00.028Z,13.80
2022-08-16T08:17:13.775Z,10.38
2022-08-16T08:22:19.375Z,13.80
2022-08-16T08:27:32.582Z,11.45
2022-08-16T08:32:57.919Z,12.82
2022-08-16T08:38:04.551Z,12.88
2022-08-16T08:43:18.275Z,15.47
2022-08-16T08:48:36.949Z,17.20
2022-08-16T08:53:43.853Z,11.47
2022-08-16T08:59:00.196Z,15.68
2022-08-16T09:04:17.552Z,12.98
2022-08-16T09:09:33.618Z,13.18
2022-08-16T09:14:49.555Z,16.13
2022-08-16T09:19:59.393Z,14.00
2022-08-16T09:25:09.911Z,13.57
2022-08-16T09:30:34.486Z,9.75
2022-08-16T09:35:45.795Z,12.80
2022-08-16T09:40:58.706Z,13.80
2022-08-16T09:46:46.027Z,14.85
2022-08-16T09:56:51.406Z,11.02
2022-08-16T10:02:26.228Z,9.05
2022-08-16T10:07:38.319Z,11.43
2022-08-16T10:13:06.302Z,12.18
2022-08-16T10:18:56.534Z,10.20
2022-08-16T10:23:36.655Z,9.55
2022-08-16T10:28:41.946Z,9.93
2022-08-16T10:33:47.322Z,7.57
2022-08-16T10:38:52.128Z,7.20
2022-08-16T10:43:55.799Z,8.75
2022-08-16T10:49:05.201Z,9.77
2022-08-16T10:54:29.457Z,8.68
2022-08-16T10:59:45.968Z,8.02
2022-08-16T11:05:06.379Z,9.70
2022-08-16T11:15:35.271Z,12.38
2022-08-16T11:20:43.194Z,7.75
2022-08-16T11:26:10.403Z,10.52
2022-08-16T11:31:16.400Z,11.18
2022-08-16T11:36:27.636Z,9.70
2022-08-16T11:41:33.407Z,8.98
2022-08-16T11:46:45.081Z,9.02
2022-08-16T11:51:51.771Z,8.13
2022-08-16T11:56:57.438Z,8.05
2022-08-16T12:02:11.592Z,7.30
2022-08-16T12:07:26.038Z,7.53
2022-08-16T12:12:32.663Z,9.23
2022-08-16T12:17:36.814Z,11.20
2022-08-16T12:22:43.183Z,7.10
2022-08-16T12:27:49.706Z,6.40
2022-08-16T12:32:57.855Z,5.03
2022-08-16T12:38:08.652Z,13.45
2022-08-16T12:43:31.281Z,6.95
2022-08-16T12:48:52.693Z,8.50
2022-08-16T12:53:59.085Z,7.13
2022-08-16T12:59:06.629Z,7.13
2022-08-16T13:04:20.483Z,6.93
2022-08-16T13:09:28.890Z,5.68
2022-08-16T13:14:34.889Z,6.77
2022-08-16T13:20:09.669Z,6.32
2022-08-16T13:25:03.694Z,8.65
2022-08-16T13:30:36.519Z,6.67
2022-08-16T13:35:34.877Z,8.82
2022-08-16T13:40:40.610Z,9.25
2022-08-16T13:45:50.406Z,6.18
2022-08-16T13:50:56.325Z,16.73
2022-08-16T13:56:01.302Z,5.43
2022-08-16T14:01:09.809Z,5.78
2022-08-16T14:06:14.796Z,5.07
2022-08-16T14:11:19.614Z,6.00
2022-08-16T14:16:24.581Z,5.72
2022-08-16T14:21:42.998Z,7.18
2022-08-16T14:26:58.294Z,13.63
2022-08-16T14:32:06.486Z,7.53
2022-08-16T14:37:10.259Z,5.68
2022-08-16T14:42:18.211Z,5.53
2022-08-16T14:47:22.418Z,5.88
2022-08-16T14:52:52.056Z,5.50
2022-08-16T14:57:54.156Z,5.10
2022-08-16T15:02:59.926Z,4.72
2022-08-16T15:08:05.227Z,5.00
2022-08-16T15:13:10.725Z,5.03
2022-08-16T15:18:23.500Z,5.53
2022-08-16T15:23:34.067Z,6.28
2022-08-16T15:28:39.273Z,7.32
2022-08-16T15:33:51.093Z,6.17
2022-08-16T15:39:07.714Z,6.53
2022-08-16T15:44:26.577Z,7.10
2022-08-16T15:49:37.346Z,7.65
2022-08-16T15:54:52.415Z,6.55
2022-08-16T16:00:04.696Z,7.30
2022-08-16T16:05:19.625Z,7.22
2022-08-16T16:10:29.286Z,7.07
2022-08-16T16:15:37.648Z,7.60
2022-08-16T16:20:46.868Z,7.37
2022-08-16T16:25:50.312Z,7.57
2022-08-16T16:30:57.075Z,7.57
2022-08-16T16:36:03.400Z,8.45
2022-08-16T16:41:10.259Z,9.65
2022-08-16T16:46:39.327Z,8.80
2022-08-16T16:51:44.934Z,8.75
2022-08-16T16:56:53.212Z,10.50
2022-08-16T17:02:38.512Z,11.50
2022-08-16T17:07:24.329Z,13.20
2022-08-16T17:12:46.764Z,9.80
2022-08-16T17:18:00.270Z,10.10
2022-08-16T17:23:05.964Z,10.30
2022-08-16T17:28:58.503Z,10.45
2022-08-16T17:33:54.134Z,10.32
2022-08-16T17:39:00.150Z,15.50
2022-08-16T17:44:04.339Z,12.10
2022-08-16T17:49:09.018Z,15.27
2022-08-16T17:54:16.959Z,11.98
2022-08-16T17:59:41.114Z,11.05
2022-08-16T18:04:49.349Z,13.15
2022-08-16T18:09:53.452Z,12.25
2022-08-16T18:15:00.162Z,18.55
2022-08-16T18:20:05.781Z,14.43
2022-08-16T18:25:09.895Z,11.40
2022-08-16T18:30:17.674Z,12.30
2022-08-16T18:35:23.340Z,17.88
2022-08-16T18:40:27.297Z,13.52
2022-08-16T18:45:35.674Z,12.85
2022-08-16T18:56:06.605Z,15.75
2022-08-16T19:01:10.110Z,15.35
2022-08-16T19:06:15.700Z,17.88
2022-08-16T19:11:25.759Z,20.92
2022-08-16T19:16:29.241Z,18.15
2022-08-16T19:21:33.993Z,16.98
2022-08-16T19:26:37.377Z,17.25
2022-08-16T19:31:40.729Z,23.50
2022-08-16T19:36:45.421Z,26.98
2022-08-16T19:41:51.981Z,21.60
2022-08-16T19:46:58.062Z,19.63
2022-08-16T19:52:12.405Z,19.92
2022-08-16T19:57:17.778Z,15.98
2022-08-16T20:02:36.184Z,17.98
2022-08-16T20:07:41.499Z,16.33
2022-08-16T20:13:02.286Z,16.70
2022-08-16T20:18:12.470Z,18.92
2022-08-16T20:23:29.860Z,15.10
2022-08-16T20:28:49.999Z,15.25
2022-08-16T20:33:56.538Z,19.75
2022-08-16T20:39:04.012Z,15.77
2022-08-16T20:44:08.062Z,15.60
2022-08-16T20:49:13.281Z,16.02
2022-08-16T20:54:18.229Z,17.33
2022-08-16T20:59:21.850Z,15.35
2022-08-16T21:04:27.765Z,16.55
2022-08-16T21:09:35.618Z,17.52
2022-08-16T21:14:39.107Z,16.13
2022-08-16T21:19:42.576Z,16.05
2022-08-16T21:24:48.402Z,17.52
2022-08-16T21:29:57.970Z,23.10
2022-08-16T21:35:08.182Z,17.67
2022-08-16T21:40:13.769Z,24.85
2022-08-16T21:45:17.317Z,20.02
2022-08-16T21:50:20.716Z,17.38
2022-08-16T21:55:26.498Z,18.13
2022-08-16T22:00:30.582Z,17.63
2022-08-16T22:05:35.492Z,24.25
2022-08-16T22:11:05.093Z,16.40
2022-08-16T22:16:06.758Z,16.67
2022-08-16T22:21:10.073Z,20.17
2022-08-16T22:26:16.312Z,24.52
2022-08-16T22:31:21.258Z,26.20
2022-08-16T22:36:30.113Z,35.28
2022-08-16T22:41:36.211Z,23.05
2022-08-16T22:46:39.934Z,18.35
2022-08-16T22:51:43.511Z,19.00
2022-08-16T22:56:48.435Z,20.52
2022-08-16T23:01:51.953Z,22.45
2022-08-16T23:06:55.419Z,23.25
2022-08-16T23:12:02.671Z,23.83
2022-08-16T23:17:06.175Z,21.23
2022-08-16T23:22:09.714Z,23.83
2022-08-16T23:27:14.358Z,22.48
2022-08-16T23:32:17.676Z,33.45
2022-08-16T23:37:20.973Z,28.60
2022-08-16T23:42:52.560Z,24.52
2022-08-16T23:47:49.426Z,23.20
2022-08-16T23:53:02.270Z,33.08
2022-08-16T23:58:07.342Z,29.98
